sensor_id;sensor_type;location;lat;lon;timestamp;temperature;humidity
23715;DHT22;12036;50.858;4.472;2023-02-18T00:00:26;11.70;99.90
23715;DHT22;12036;50.858;4.472;2023-02-18T00:02:52;11.70;99.90
23715;DHT22;12036;50.858;4.472;2023-02-18T00:05:20;11.70;99.90
23715;DHT22;12036;50.858;4.472;2023-02-18T00:07:46;11.50;99.90
23715;DHT22;12036;50.858;4.472;2023-02-18T00:10:13;11.60;99.90
23715;DHT22;12036;50.858;4.472;2023-02-18T00:12:39;11.60;99.90
23715;DHT22;12036;50.858;4.472;2023-02-18T00:15:05;11.60;99.90
23715;DHT22;12036;50.858;4.472;2023-02-18T00:17:31;11.60;99.90
23715;DHT22;12036;50.858;4.472;2023-02-18T00:19:57;11.60;99.90
23715;DHT22;12036;50.858;4.472;2023-02-18T00:22:23;11.70;99.90
23715;DHT22;12036;50.858;4.472;2023-02-18T00:24:49;11.70;99.90
23715;DHT22;12036;50.858;4.472;2023-02-18T00:27:16;11.60;99.90
23715;DHT22;12036;50.858;4.472;2023-02-18T00:29:42;11.50;99.90
23715;DHT22;12036;50.858;4.472;2023-02-18T00:32:07;11.50;99.90
23715;DHT22;12036;50.858;4.472;2023-02-18T00:34:33;11.60;99.90
23715;DHT22;12036;50.858;4.472;2023-02-18T00:36:59;11.70;99.90
23715;DHT22;12036;50.858;4.472;2023-02-18T00:39:24;11.70;99.90
23715;DHT22;12036;50.858;4.472;2023-02-18T00:41:50;11.70;99.90
23715;DHT22;12036;50.858;4.472;2023-02-18T00:44:15;11.60;99.90
23715;DHT22;12036;50.858;4.472;2023-02-18T00:46:41;11.50;99.90
23715;DHT22;12036;50.858;4.472;2023-02-18T00:49:07;11.60;99.90
23715;DHT22;12036;50.858;4.472;2023-02-18T00:51:33;11.70;99.90
23715;DHT22;12036;50.858;4.472;2023-02-18T00:53:59;11.80;99.90
23715;DHT22;12036;50.858;4.472;2023-02-18T00:56:25;11.50;99.90
23715;DHT22;12036;50.858;4.472;2023-02-18T00:58:51;11.50;99.90
23715;DHT22;12036;50.858;4.472;2023-02-18T01:01:17;11.50;99.90
23715;DHT22;12036;50.858;4.472;2023-02-18T01:03:43;11.60;99.90
23715;DHT22;12036;50.858;4.472;2023-02-18T01:06:10;11.50;99.90
23715;DHT22;12036;50.858;4.472;2023-02-18T01:08:37;11.50;99.90
23715;DHT22;12036;50.858;4.472;2023-02-18T01:11:03;11.40;99.90
23715;DHT22;12036;50.858;4.472;2023-02-18T01:13:30;11.50;99.90
23715;DHT22;12036;50.858;4.472;2023-02-18T01:15:56;11.40;99.90
23715;DHT22;12036;50.858;4.472;2023-02-18T01:18:23;11.30;99.90
23715;DHT22;12036;50.858;4.472;2023-02-18T01:20:49;11.40;99.90
23715;DHT22;12036;50.858;4.472;2023-02-18T01:23:15;11.40;99.90
23715;DHT22;12036;50.858;4.472;2023-02-18T01:25:41;11.30;99.90
23715;DHT22;12036;50.858;4.472;2023-02-18T01:28:07;11.30;99.90
23715;DHT22;12036;50.858;4.472;2023-02-18T01:30:34;11.30;99.90
23715;DHT22;12036;50.858;4.472;2023-02-18T01:33:00;11.40;99.90
23715;DHT22;12036;50.858;4.472;2023-02-18T01:35:26;11.30;99.90
23715;DHT22;12036;50.858;4.472;2023-02-18T01:37:52;11.30;99.90
23715;DHT22;12036;50.858;4.472;2023-02-18T01:40:21;11.30;99.90
23715;DHT22;12036;50.858;4.472;2023-02-18T01:42:47;11.30;99.90
23715;DHT22;12036;50.858;4.472;2023-02-18T01:50:29;11.10;99.90
23715;DHT22;12036;50.858;4.472;2023-02-18T01:52:55;11.20;99.90
23715;DHT22;12036;50.858;4.472;2023-02-18T01:55:20;11.20;99.90
23715;DHT22;12036;50.858;4.472;2023-02-18T01:57:46;11.20;99.90
23715;DHT22;12036;50.858;4.472;2023-02-18T02:00:15;11.20;99.90
23715;DHT22;12036;50.858;4.472;2023-02-18T02:02:45;11.30;99.90
23715;DHT22;12036;50.858;4.472;2023-02-18T02:05:11;11.30;99.90
23715;DHT22;12036;50.858;4.472;2023-02-18T02:07:39;11.20;99.90
23715;DHT22;12036;50.858;4.472;2023-02-18T02:10:06;11.30;99.90
23715;DHT22;12036;50.858;4.472;2023-02-18T02:13:52;11.20;99.90
23715;DHT22;12036;50.858;4.472;2023-02-18T02:16:05;11.20;99.90
23715;DHT22;12036;50.858;4.472;2023-02-18T02:19:17;11.10;99.90
23715;DHT22;12036;50.858;4.472;2023-02-18T02:22:01;11.00;99.90
23715;DHT22;12036;50.858;4.472;2023-02-18T02:27:24;11.10;99.90
23715;DHT22;12036;50.858;4.472;2023-02-18T02:36:02;11.20;99.90
23715;DHT22;12036;50.858;4.472;2023-02-18T02:38:43;11.10;99.90
23715;DHT22;12036;50.858;4.472;2023-02-18T02:46:38;11.10;99.90
23715;DHT22;12036;50.858;4.472;2023-02-18T02:54:23;11.00;99.90
23715;DHT22;12036;50.858;4.472;2023-02-18T02:56:49;11.00;99.90
23715;DHT22;12036;50.858;4.472;2023-02-18T02:59:25;10.90;99.90
23715;DHT22;12036;50.858;4.472;2023-02-18T03:10:55;11.20;99.90
23715;DHT22;12036;50.858;4.472;2023-02-18T03:19:19;11.00;99.90
23715;DHT22;12036;50.858;4.472;2023-02-18T03:22:07;11.00;99.90
23715;DHT22;12036;50.858;4.472;2023-02-18T03:24:38;11.00;99.90
23715;DHT22;12036;50.858;4.472;2023-02-18T03:27:20;10.90;99.90
23715;DHT22;12036;50.858;4.472;2023-02-18T03:29:52;10.90;99.90
23715;DHT22;12036;50.858;4.472;2023-02-18T03:32:21;10.80;99.90
23715;DHT22;12036;50.858;4.472;2023-02-18T03:34:52;10.80;99.90
23715;DHT22;12036;50.858;4.472;2023-02-18T03:37:19;10.90;99.90
23715;DHT22;12036;50.858;4.472;2023-02-18T03:39:49;10.80;99.90
23715;DHT22;12036;50.858;4.472;2023-02-18T03:42:17;10.80;99.90
23715;DHT22;12036;50.858;4.472;2023-02-18T03:44:43;10.80;99.90
23715;DHT22;12036;50.858;4.472;2023-02-18T03:47:10;10.80;99.90
23715;DHT22;12036;50.858;4.472;2023-02-18T03:49:36;10.90;99.90
23715;DHT22;12036;50.858;4.472;2023-02-18T03:52:01;10.80;99.90
23715;DHT22;12036;50.858;4.472;2023-02-18T03:54:27;10.80;99.90
23715;DHT22;12036;50.858;4.472;2023-02-18T03:56:53;10.80;99.90
23715;DHT22;12036;50.858;4.472;2023-02-18T03:59:18;10.90;99.90
23715;DHT22;12036;50.858;4.472;2023-02-18T04:01:44;10.90;99.90
23715;DHT22;12036;50.858;4.472;2023-02-18T04:04:09;10.80;99.90
23715;DHT22;12036;50.858;4.472;2023-02-18T04:06:35;10.80;99.90
23715;DHT22;12036;50.858;4.472;2023-02-18T04:09:01;10.80;99.90
23715;DHT22;12036;50.858;4.472;2023-02-18T04:11:37;10.70;99.90
23715;DHT22;12036;50.858;4.472;2023-02-18T04:14:03;10.70;99.90
23715;DHT22;12036;50.858;4.472;2023-02-18T04:16:29;10.70;99.90
23715;DHT22;12036;50.858;4.472;2023-02-18T04:18:55;10.70;99.90
23715;DHT22;12036;50.858;4.472;2023-02-18T04:21:20;10.70;99.90
23715;DHT22;12036;50.858;4.472;2023-02-18T04:23:46;10.60;99.90
23715;DHT22;12036;50.858;4.472;2023-02-18T04:26:12;10.60;99.90
23715;DHT22;12036;50.858;4.472;2023-02-18T04:28:37;10.60;99.90
23715;DHT22;12036;50.858;4.472;2023-02-18T04:31:03;10.50;99.90
23715;DHT22;12036;50.858;4.472;2023-02-18T04:33:29;10.50;99.90
23715;DHT22;12036;50.858;4.472;2023-02-18T04:35:55;10.50;99.90
23715;DHT22;12036;50.858;4.472;2023-02-18T04:38:20;10.50;99.90
23715;DHT22;12036;50.858;4.472;2023-02-18T04:40:46;10.50;99.90
23715;DHT22;12036;50.858;4.472;2023-02-18T04:43:12;10.60;99.90
23715;DHT22;12036;50.858;4.472;2023-02-18T04:45:37;10.50;99.90
23715;DHT22;12036;50.858;4.472;2023-02-18T04:48:03;10.50;99.90
23715;DHT22;12036;50.858;4.472;2023-02-18T04:50:29;10.50;99.90
23715;DHT22;12036;50.858;4.472;2023-02-18T04:52:55;10.50;99.90
23715;DHT22;12036;50.858;4.472;2023-02-18T04:55:20;10.50;99.90
23715;DHT22;12036;50.858;4.472;2023-02-18T04:57:46;10.50;99.90
23715;DHT22;12036;50.858;4.472;2023-02-18T05:00:14;10.50;99.90
23715;DHT22;12036;50.858;4.472;2023-02-18T05:02:40;10.50;99.90
23715;DHT22;12036;50.858;4.472;2023-02-18T05:05:06;10.50;99.90
23715;DHT22;12036;50.858;4.472;2023-02-18T05:07:32;10.60;99.90
23715;DHT22;12036;50.858;4.472;2023-02-18T05:09:58;10.60;99.90
23715;DHT22;12036;50.858;4.472;2023-02-18T05:12:23;10.70;99.90
23715;DHT22;12036;50.858;4.472;2023-02-18T05:14:49;10.60;99.90
23715;DHT22;12036;50.858;4.472;2023-02-18T05:17:14;10.60;99.90
23715;DHT22;12036;50.858;4.472;2023-02-18T05:19:40;10.70;99.90
23715;DHT22;12036;50.858;4.472;2023-02-18T05:22:06;10.60;99.90
23715;DHT22;12036;50.858;4.472;2023-02-18T05:24:31;10.50;99.90
23715;DHT22;12036;50.858;4.472;2023-02-18T05:26:57;10.70;99.90
23715;DHT22;12036;50.858;4.472;2023-02-18T05:29:23;10.60;99.90
23715;DHT22;12036;50.858;4.472;2023-02-18T05:31:48;10.70;99.90
23715;DHT22;12036;50.858;4.472;2023-02-18T05:34:14;10.70;99.90
23715;DHT22;12036;50.858;4.472;2023-02-18T05:36:40;10.70;99.90
23715;DHT22;12036;50.858;4.472;2023-02-18T05:39:05;10.60;99.90
23715;DHT22;12036;50.858;4.472;2023-02-18T05:41:31;10.50;99.90
23715;DHT22;12036;50.858;4.472;2023-02-18T05:43:56;10.50;99.90
23715;DHT22;12036;50.858;4.472;2023-02-18T05:46:40;10.50;99.90
23715;DHT22;12036;50.858;4.472;2023-02-18T05:49:06;10.40;99.90
23715;DHT22;12036;50.858;4.472;2023-02-18T05:51:32;10.40;99.90
23715;DHT22;12036;50.858;4.472;2023-02-18T05:53:57;10.40;99.90
23715;DHT22;12036;50.858;4.472;2023-02-18T05:56:23;10.40;99.90
23715;DHT22;12036;50.858;4.472;2023-02-18T05:58:48;10.30;99.90
23715;DHT22;12036;50.858;4.472;2023-02-18T06:01:14;10.50;99.90
23715;DHT22;12036;50.858;4.472;2023-02-18T06:03:40;10.40;99.90
23715;DHT22;12036;50.858;4.472;2023-02-18T06:06:06;10.40;99.90
23715;DHT22;12036;50.858;4.472;2023-02-18T06:08:31;10.30;99.90
23715;DHT22;12036;50.858;4.472;2023-02-18T06:10:57;10.40;99.90
23715;DHT22;12036;50.858;4.472;2023-02-18T06:13:23;10.40;99.90
23715;DHT22;12036;50.858;4.472;2023-02-18T06:15:51;10.40;99.90
23715;DHT22;12036;50.858;4.472;2023-02-18T06:18:18;10.40;99.90
23715;DHT22;12036;50.858;4.472;2023-02-18T06:20:45;10.40;99.90
23715;DHT22;12036;50.858;4.472;2023-02-18T06:23:11;10.40;99.90
23715;DHT22;12036;50.858;4.472;2023-02-18T06:25:36;10.50;99.90
23715;DHT22;12036;50.858;4.472;2023-02-18T06:28:02;10.40;99.90
23715;DHT22;12036;50.858;4.472;2023-02-18T06:30:27;10.50;99.90
23715;DHT22;12036;50.858;4.472;2023-02-18T06:32:53;10.50;99.90
23715;DHT22;12036;50.858;4.472;2023-02-18T06:35:19;10.50;99.90
23715;DHT22;12036;50.858;4.472;2023-02-18T06:37:44;10.50;99.90
23715;DHT22;12036;50.858;4.472;2023-02-18T06:40:11;10.40;99.90
23715;DHT22;12036;50.858;4.472;2023-02-18T06:42:36;10.30;99.90
23715;DHT22;12036;50.858;4.472;2023-02-18T06:45:02;10.20;99.90
23715;DHT22;12036;50.858;4.472;2023-02-18T06:47:28;10.40;99.90
23715;DHT22;12036;50.858;4.472;2023-02-18T06:49:53;10.40;99.90
23715;DHT22;12036;50.858;4.472;2023-02-18T06:52:19;10.50;99.90
23715;DHT22;12036;50.858;4.472;2023-02-18T06:54:44;10.50;99.90
23715;DHT22;12036;50.858;4.472;2023-02-18T06:57:10;10.50;99.90
23715;DHT22;12036;50.858;4.472;2023-02-18T06:59:36;10.40;99.90
23715;DHT22;12036;50.858;4.472;2023-02-18T07:02:01;10.40;99.90
23715;DHT22;12036;50.858;4.472;2023-02-18T07:04:27;10.50;99.90
23715;DHT22;12036;50.858;4.472;2023-02-18T07:06:52;10.40;99.90
23715;DHT22;12036;50.858;4.472;2023-02-18T07:09:18;10.40;99.90
23715;DHT22;12036;50.858;4.472;2023-02-18T07:11:44;10.40;99.90
23715;DHT22;12036;50.858;4.472;2023-02-18T07:14:09;10.40;99.90
23715;DHT22;12036;50.858;4.472;2023-02-18T07:16:35;10.40;99.90
23715;DHT22;12036;50.858;4.472;2023-02-18T07:19:00;10.40;99.90
23715;DHT22;12036;50.858;4.472;2023-02-18T07:21:26;10.40;99.90
23715;DHT22;12036;50.858;4.472;2023-02-18T07:23:52;10.50;99.90
23715;DHT22;12036;50.858;4.472;2023-02-18T07:26:17;10.40;99.90
23715;DHT22;12036;50.858;4.472;2023-02-18T07:28:43;10.50;99.90
23715;DHT22;12036;50.858;4.472;2023-02-18T07:31:09;10.50;99.90
23715;DHT22;12036;50.858;4.472;2023-02-18T07:33:34;10.60;99.90
23715;DHT22;12036;50.858;4.472;2023-02-18T07:36:01;10.50;99.90
23715;DHT22;12036;50.858;4.472;2023-02-18T07:38:27;10.50;99.90
23715;DHT22;12036;50.858;4.472;2023-02-18T07:40:53;10.60;99.90
23715;DHT22;12036;50.858;4.472;2023-02-18T07:43:19;10.50;99.90
23715;DHT22;12036;50.858;4.472;2023-02-18T07:45:45;10.50;99.90
23715;DHT22;12036;50.858;4.472;2023-02-18T07:48:11;10.70;99.90
23715;DHT22;12036;50.858;4.472;2023-02-18T07:50:41;10.50;99.90
23715;DHT22;12036;50.858;4.472;2023-02-18T07:53:09;10.60;99.90
23715;DHT22;12036;50.858;4.472;2023-02-18T07:55:35;10.50;99.90
23715;DHT22;12036;50.858;4.472;2023-02-18T07:58:20;10.50;99.90
23715;DHT22;12036;50.858;4.472;2023-02-18T08:00:47;10.70;99.90
23715;DHT22;12036;50.858;4.472;2023-02-18T08:03:15;10.70;99.90
23715;DHT22;12036;50.858;4.472;2023-02-18T08:05:40;10.80;99.90
23715;DHT22;12036;50.858;4.472;2023-02-18T08:08:06;11.00;99.90
23715;DHT22;12036;50.858;4.472;2023-02-18T08:10:32;11.00;99.90
23715;DHT22;12036;50.858;4.472;2023-02-18T08:12:57;11.00;99.90
23715;DHT22;12036;50.858;4.472;2023-02-18T08:15:23;11.00;99.90
23715;DHT22;12036;50.858;4.472;2023-02-18T08:17:49;10.90;99.90
23715;DHT22;12036;50.858;4.472;2023-02-18T08:20:14;11.00;99.90
23715;DHT22;12036;50.858;4.472;2023-02-18T08:22:40;11.00;99.90
23715;DHT22;12036;50.858;4.472;2023-02-18T08:25:06;11.00;99.90
23715;DHT22;12036;50.858;4.472;2023-02-18T08:27:32;11.00;99.90
23715;DHT22;12036;50.858;4.472;2023-02-18T08:29:57;11.00;99.90
23715;DHT22;12036;50.858;4.472;2023-02-18T08:32:26;11.10;99.90
23715;DHT22;12036;50.858;4.472;2023-02-18T08:34:53;11.20;99.90
23715;DHT22;12036;50.858;4.472;2023-02-18T08:37:19;11.40;99.90
23715;DHT22;12036;50.858;4.472;2023-02-18T08:39:44;11.20;99.90
23715;DHT22;12036;50.858;4.472;2023-02-18T08:42:10;11.20;99.90
23715;DHT22;12036;50.858;4.472;2023-02-18T08:44:35;11.40;99.90
23715;DHT22;12036;50.858;4.472;2023-02-18T08:47:01;11.50;99.90
23715;DHT22;12036;50.858;4.472;2023-02-18T08:49:27;11.50;99.90
23715;DHT22;12036;50.858;4.472;2023-02-18T08:51:53;11.60;99.90
23715;DHT22;12036;50.858;4.472;2023-02-18T08:54:18;11.60;99.90
23715;DHT22;12036;50.858;4.472;2023-02-18T08:56:44;11.60;99.90
23715;DHT22;12036;50.858;4.472;2023-02-18T08:59:10;11.60;99.90
23715;DHT22;12036;50.858;4.472;2023-02-18T09:01:35;11.50;99.90
23715;DHT22;12036;50.858;4.472;2023-02-18T09:04:01;11.50;99.90
23715;DHT22;12036;50.858;4.472;2023-02-18T09:06:27;11.40;99.90
23715;DHT22;12036;50.858;4.472;2023-02-18T09:08:52;11.50;99.90
23715;DHT22;12036;50.858;4.472;2023-02-18T09:11:18;11.60;99.90
23715;DHT22;12036;50.858;4.472;2023-02-18T09:13:44;11.50;99.90
23715;DHT22;12036;50.858;4.472;2023-02-18T09:16:16;11.60;99.90
23715;DHT22;12036;50.858;4.472;2023-02-18T09:18:46;11.60;99.90
23715;DHT22;12036;50.858;4.472;2023-02-18T09:21:14;11.70;99.90
23715;DHT22;12036;50.858;4.472;2023-02-18T09:23:40;11.50;99.90
23715;DHT22;12036;50.858;4.472;2023-02-18T09:26:09;11.50;99.90
23715;DHT22;12036;50.858;4.472;2023-02-18T09:28:37;11.50;99.90
23715;DHT22;12036;50.858;4.472;2023-02-18T09:31:06;11.70;99.90
23715;DHT22;12036;50.858;4.472;2023-02-18T09:33:42;11.60;99.90
23715;DHT22;12036;50.858;4.472;2023-02-18T09:36:08;11.70;99.90
23715;DHT22;12036;50.858;4.472;2023-02-18T09:38:33;11.80;99.90
23715;DHT22;12036;50.858;4.472;2023-02-18T09:41:02;11.90;99.90
23715;DHT22;12036;50.858;4.472;2023-02-18T09:43:38;11.80;99.90
23715;DHT22;12036;50.858;4.472;2023-02-18T09:46:18;11.80;99.90
23715;DHT22;12036;50.858;4.472;2023-02-18T09:48:46;11.80;99.90
23715;DHT22;12036;50.858;4.472;2023-02-18T09:51:13;11.70;99.90
23715;DHT22;12036;50.858;4.472;2023-02-18T09:53:41;11.80;99.90
23715;DHT22;12036;50.858;4.472;2023-02-18T09:56:12;11.80;99.90
23715;DHT22;12036;50.858;4.472;2023-02-18T09:58:40;11.90;99.90
23715;DHT22;12036;50.858;4.472;2023-02-18T10:01:15;11.90;99.90
23715;DHT22;12036;50.858;4.472;2023-02-18T10:03:42;12.10;99.90
23715;DHT22;12036;50.858;4.472;2023-02-18T10:06:16;12.00;99.90
23715;DHT22;12036;50.858;4.472;2023-02-18T10:08:46;12.00;99.90
23715;DHT22;12036;50.858;4.472;2023-02-18T10:11:27;12.10;99.90
23715;DHT22;12036;50.858;4.472;2023-02-18T10:13:54;12.10;99.90
23715;DHT22;12036;50.858;4.472;2023-02-18T10:16:22;12.20;99.90
23715;DHT22;12036;50.858;4.472;2023-02-18T10:18:51;12.20;99.90
23715;DHT22;12036;50.858;4.472;2023-02-18T10:21:30;12.30;99.90
23715;DHT22;12036;50.858;4.472;2023-02-18T10:24:04;12.30;99.90
23715;DHT22;12036;50.858;4.472;2023-02-18T10:26:33;12.20;99.90
23715;DHT22;12036;50.858;4.472;2023-02-18T10:28:59;12.20;99.90
23715;DHT22;12036;50.858;4.472;2023-02-18T10:31:42;12.20;99.90
23715;DHT22;12036;50.858;4.472;2023-02-18T10:37:04;12.40;99.90
23715;DHT22;12036;50.858;4.472;2023-02-18T10:39:51;12.40;99.90
23715;DHT22;12036;50.858;4.472;2023-02-18T10:50:45;12.40;99.90
23715;DHT22;12036;50.858;4.472;2023-02-18T10:53:25;12.30;99.90
23715;DHT22;12036;50.858;4.472;2023-02-18T10:55:55;12.30;99.90
23715;DHT22;12036;50.858;4.472;2023-02-18T11:01:02;12.40;99.90
23715;DHT22;12036;50.858;4.472;2023-02-18T11:03:43;12.30;99.90
23715;DHT22;12036;50.858;4.472;2023-02-18T11:06:42;12.40;99.90
23715;DHT22;12036;50.858;4.472;2023-02-18T11:09:28;12.40;99.90
23715;DHT22;12036;50.858;4.472;2023-02-18T11:12:02;12.50;99.90
23715;DHT22;12036;50.858;4.472;2023-02-18T11:14:39;12.40;99.90
23715;DHT22;12036;50.858;4.472;2023-02-18T11:17:29;12.60;99.90
23715;DHT22;12036;50.858;4.472;2023-02-18T11:20:00;12.70;99.90
23715;DHT22;12036;50.858;4.472;2023-02-18T11:22:34;12.70;99.90
23715;DHT22;12036;50.858;4.472;2023-02-18T11:27:56;12.70;99.90
23715;DHT22;12036;50.858;4.472;2023-02-18T11:30:38;12.70;99.90
23715;DHT22;12036;50.858;4.472;2023-02-18T11:33:14;12.70;99.90
23715;DHT22;12036;50.858;4.472;2023-02-18T11:35:52;12.70;99.90
23715;DHT22;12036;50.858;4.472;2023-02-18T11:38:37;12.60;99.90
23715;DHT22;12036;50.858;4.472;2023-02-18T11:41:12;12.70;99.90
23715;DHT22;12036;50.858;4.472;2023-02-18T11:43:45;12.80;99.90
23715;DHT22;12036;50.858;4.472;2023-02-18T11:46:15;12.70;99.90
23715;DHT22;12036;50.858;4.472;2023-02-18T11:48:41;12.70;99.90
23715;DHT22;12036;50.858;4.472;2023-02-18T11:51:33;12.80;99.90
23715;DHT22;12036;50.858;4.472;2023-02-18T11:56:35;12.80;99.90
23715;DHT22;12036;50.858;4.472;2023-02-18T11:59:01;13.00;99.90
23715;DHT22;12036;50.858;4.472;2023-02-18T12:04:50;12.80;99.90
23715;DHT22;12036;50.858;4.472;2023-02-18T12:07:21;12.80;99.90
23715;DHT22;12036;50.858;4.472;2023-02-18T12:09:51;12.90;99.90
23715;DHT22;12036;50.858;4.472;2023-02-18T12:14:49;13.00;99.90
23715;DHT22;12036;50.858;4.472;2023-02-18T12:26:01;12.90;99.90
23715;DHT22;12036;50.858;4.472;2023-02-18T12:28:42;13.00;99.90
23715;DHT22;12036;50.858;4.472;2023-02-18T12:33:58;12.90;99.90
23715;DHT22;12036;50.858;4.472;2023-02-18T12:44:31;12.90;99.90
23715;DHT22;12036;50.858;4.472;2023-02-18T12:47:30;13.10;99.90
23715;DHT22;12036;50.858;4.472;2023-02-18T12:50:43;13.10;99.90
23715;DHT22;12036;50.858;4.472;2023-02-18T12:59:26;13.10;99.90
23715;DHT22;12036;50.858;4.472;2023-02-18T13:15:10;12.10;99.90
23715;DHT22;12036;50.858;4.472;2023-02-18T13:17:40;12.10;99.90
23715;DHT22;12036;50.858;4.472;2023-02-18T13:20:21;12.10;99.90
23715;DHT22;12036;50.858;4.472;2023-02-18T13:22:48;12.00;99.90
23715;DHT22;12036;50.858;4.472;2023-02-18T13:25:16;11.90;99.90
23715;DHT22;12036;50.858;4.472;2023-02-18T13:28:02;11.80;99.90
23715;DHT22;12036;50.858;4.472;2023-02-18T13:30:47;11.80;99.90
23715;DHT22;12036;50.858;4.472;2023-02-18T13:33:21;11.80;99.90
23715;DHT22;12036;50.858;4.472;2023-02-18T13:38:50;11.80;99.90
23715;DHT22;12036;50.858;4.472;2023-02-18T13:41:18;11.70;99.90
23715;DHT22;12036;50.858;4.472;2023-02-18T13:43:45;11.70;99.90
23715;DHT22;12036;50.858;4.472;2023-02-18T13:46:21;11.70;99.90
23715;DHT22;12036;50.858;4.472;2023-02-18T13:48:50;11.60;99.90
23715;DHT22;12036;50.858;4.472;2023-02-18T13:51:33;11.60;99.90
23715;DHT22;12036;50.858;4.472;2023-02-18T13:56:57;11.70;99.90
23715;DHT22;12036;50.858;4.472;2023-02-18T13:59:35;11.60;99.90
23715;DHT22;12036;50.858;4.472;2023-02-18T14:10:27;11.50;99.90
23715;DHT22;12036;50.858;4.472;2023-02-18T14:33:41;11.40;99.90
23715;DHT22;12036;50.858;4.472;2023-02-18T14:36:17;11.40;99.90
23715;DHT22;12036;50.858;4.472;2023-02-18T14:41:50;11.40;99.90
23715;DHT22;12036;50.858;4.472;2023-02-18T14:49:43;11.50;99.90
23715;DHT22;12036;50.858;4.472;2023-02-18T14:52:18;11.60;99.90
23715;DHT22;12036;50.858;4.472;2023-02-18T14:54:47;11.50;99.90
23715;DHT22;12036;50.858;4.472;2023-02-18T14:57:16;11.70;99.90
23715;DHT22;12036;50.858;4.472;2023-02-18T14:59:43;11.70;99.90
23715;DHT22;12036;50.858;4.472;2023-02-18T15:04:43;11.90;99.90
23715;DHT22;12036;50.858;4.472;2023-02-18T15:07:10;11.80;99.90
23715;DHT22;12036;50.858;4.472;2023-02-18T15:09:47;11.90;99.90
23715;DHT22;12036;50.858;4.472;2023-02-18T15:12:19;11.90;99.90
23715;DHT22;12036;50.858;4.472;2023-02-18T15:14:47;11.90;99.90
23715;DHT22;12036;50.858;4.472;2023-02-18T15:17:19;11.90;99.90
23715;DHT22;12036;50.858;4.472;2023-02-18T15:19:57;11.90;99.90
23715;DHT22;12036;50.858;4.472;2023-02-18T15:22:25;11.90;99.90
23715;DHT22;12036;50.858;4.472;2023-02-18T15:24:53;11.80;99.90
23715;DHT22;12036;50.858;4.472;2023-02-18T15:27:25;11.80;99.90
23715;DHT22;12036;50.858;4.472;2023-02-18T15:29:58;11.90;99.90
23715;DHT22;12036;50.858;4.472;2023-02-18T15:32:28;12.00;99.90
23715;DHT22;12036;50.858;4.472;2023-02-18T15:34:59;12.00;99.90
23715;DHT22;12036;50.858;4.472;2023-02-18T15:37:26;11.90;99.90
23715;DHT22;12036;50.858;4.472;2023-02-18T15:39:52;11.90;99.90
23715;DHT22;12036;50.858;4.472;2023-02-18T15:42:33;11.90;99.90
23715;DHT22;12036;50.858;4.472;2023-02-18T15:45:01;11.90;99.90
23715;DHT22;12036;50.858;4.472;2023-02-18T15:47:28;11.80;99.90
23715;DHT22;12036;50.858;4.472;2023-02-18T15:49:57;11.80;99.90
23715;DHT22;12036;50.858;4.472;2023-02-18T15:52:26;11.90;99.90
23715;DHT22;12036;50.858;4.472;2023-02-18T15:54:54;11.90;99.90
23715;DHT22;12036;50.858;4.472;2023-02-18T15:57:25;11.70;99.90
23715;DHT22;12036;50.858;4.472;2023-02-18T16:00:18;11.60;99.90
23715;DHT22;12036;50.858;4.472;2023-02-18T16:03:20;11.60;99.90
23715;DHT22;12036;50.858;4.472;2023-02-18T16:05:46;11.50;99.90
23715;DHT22;12036;50.858;4.472;2023-02-18T16:08:30;11.50;99.90
23715;DHT22;12036;50.858;4.472;2023-02-18T16:10:59;11.50;99.90
23715;DHT22;12036;50.858;4.472;2023-02-18T16:13:26;11.50;99.90
23715;DHT22;12036;50.858;4.472;2023-02-18T16:15:53;11.60;99.90
23715;DHT22;12036;50.858;4.472;2023-02-18T16:23:58;11.70;99.90
23715;DHT22;12036;50.858;4.472;2023-02-18T16:29:23;11.90;99.90
23715;DHT22;12036;50.858;4.472;2023-02-18T16:31:49;11.80;99.90
23715;DHT22;12036;50.858;4.472;2023-02-18T16:34:15;11.70;99.90
23715;DHT22;12036;50.858;4.472;2023-02-18T16:36:41;11.70;99.90
23715;DHT22;12036;50.858;4.472;2023-02-18T16:39:28;11.70;99.90
23715;DHT22;12036;50.858;4.472;2023-02-18T16:41:55;11.70;99.90
23715;DHT22;12036;50.858;4.472;2023-02-18T16:44:21;11.70;99.90
23715;DHT22;12036;50.858;4.472;2023-02-18T16:46:46;11.70;99.90
23715;DHT22;12036;50.858;4.472;2023-02-18T16:49:13;11.60;99.90
23715;DHT22;12036;50.858;4.472;2023-02-18T16:51:39;11.60;99.90
23715;DHT22;12036;50.858;4.472;2023-02-18T16:54:09;11.60;99.90
23715;DHT22;12036;50.858;4.472;2023-02-18T16:56:35;11.60;99.90
23715;DHT22;12036;50.858;4.472;2023-02-18T16:59:01;11.70;99.90
23715;DHT22;12036;50.858;4.472;2023-02-18T17:01:42;11.70;99.90
23715;DHT22;12036;50.858;4.472;2023-02-18T17:04:09;11.70;99.90
23715;DHT22;12036;50.858;4.472;2023-02-18T17:06:36;11.60;99.90
23715;DHT22;12036;50.858;4.472;2023-02-18T17:09:15;11.60;99.90
23715;DHT22;12036;50.858;4.472;2023-02-18T17:11:45;11.70;99.90
23715;DHT22;12036;50.858;4.472;2023-02-18T17:14:15;11.60;99.90
23715;DHT22;12036;50.858;4.472;2023-02-18T17:16:48;11.70;99.90
23715;DHT22;12036;50.858;4.472;2023-02-18T17:19:15;11.70;99.90
23715;DHT22;12036;50.858;4.472;2023-02-18T17:21:41;11.70;99.90
23715;DHT22;12036;50.858;4.472;2023-02-18T17:24:14;11.70;99.90
23715;DHT22;12036;50.858;4.472;2023-02-18T17:26:40;11.60;99.90
23715;DHT22;12036;50.858;4.472;2023-02-18T17:29:06;11.70;99.90
23715;DHT22;12036;50.858;4.472;2023-02-18T17:31:42;11.80;99.90
23715;DHT22;12036;50.858;4.472;2023-02-18T17:34:14;11.70;99.90
23715;DHT22;12036;50.858;4.472;2023-02-18T17:36:42;11.60;99.90
23715;DHT22;12036;50.858;4.472;2023-02-18T17:39:14;11.60;99.90
23715;DHT22;12036;50.858;4.472;2023-02-18T17:41:42;11.60;99.90
23715;DHT22;12036;50.858;4.472;2023-02-18T17:44:28;11.60;99.90
23715;DHT22;12036;50.858;4.472;2023-02-18T17:46:54;11.60;99.90
23715;DHT22;12036;50.858;4.472;2023-02-18T17:49:19;11.60;99.90
23715;DHT22;12036;50.858;4.472;2023-02-18T17:51:46;11.60;99.90
23715;DHT22;12036;50.858;4.472;2023-02-18T17:54:17;11.60;99.90
23715;DHT22;12036;50.858;4.472;2023-02-18T17:56:43;11.50;99.90
23715;DHT22;12036;50.858;4.472;2023-02-18T17:59:10;11.50;99.90
23715;DHT22;12036;50.858;4.472;2023-02-18T18:01:35;11.50;99.90
23715;DHT22;12036;50.858;4.472;2023-02-18T18:04:01;11.50;99.90
23715;DHT22;12036;50.858;4.472;2023-02-18T18:06:27;11.50;99.90
23715;DHT22;12036;50.858;4.472;2023-02-18T18:08:53;11.50;99.90
23715;DHT22;12036;50.858;4.472;2023-02-18T18:11:22;11.50;99.90
23715;DHT22;12036;50.858;4.472;2023-02-18T18:13:48;11.70;99.90
23715;DHT22;12036;50.858;4.472;2023-02-18T18:16:15;11.70;99.90
23715;DHT22;12036;50.858;4.472;2023-02-18T18:18:42;11.60;99.90
23715;DHT22;12036;50.858;4.472;2023-02-18T18:21:22;11.50;99.90